createdAt,value
2022-12-29T00:00:15.987Z,9.58
2022-12-29T00:02:43.737Z,9.52
2022-12-29T00:05:11.384Z,9.55
2022-12-29T00:07:40.520Z,9.59
2022-12-29T00:10:09.058Z,9.61
2022-12-29T00:12:50.579Z,9.56
2022-12-29T00:15:35.727Z,9.60
2022-12-29T00:18:03.549Z,9.54
2022-12-29T00:20:48.617Z,9.59
2022-12-29T00:23:35.139Z,9.52
2022-12-29T00:26:22.836Z,9.52
2022-12-29T00:29:12.815Z,9.62
2022-12-29T00:31:58.122Z,9.65
2022-12-29T00:34:43.409Z,9.80
2022-12-29T00:37:11.186Z,9.80
2022-12-29T00:39:57.594Z,9.97
2022-12-29T00:42:42.976Z,9.93
2022-12-29T00:45:10.797Z,10.04
2022-12-29T00:47:38.382Z,10.15
2022-12-29T00:50:08.254Z,10.19
2022-12-29T00:52:35.883Z,10.19
2022-12-29T00:55:05.298Z,10.31
2022-12-29T00:57:32.919Z,10.37
2022-12-29T01:00:00.722Z,10.40
2022-12-29T01:02:28.480Z,10.38
2022-12-29T01:04:56.146Z,10.43
2022-12-29T01:07:23.808Z,10.36
2022-12-29T01:10:08.800Z,10.39
2022-12-29T01:12:45.805Z,10.35
2022-12-29T01:15:15.079Z,10.39
2022-12-29T01:17:42.678Z,10.40
2022-12-29T01:20:11.633Z,10.39
2022-12-29T01:22:39.269Z,10.42
2022-12-29T01:25:07.847Z,10.50
2022-12-29T01:27:36.789Z,10.43
2022-12-29T01:30:04.885Z,10.43
2022-12-29T01:32:32.351Z,10.47
2022-12-29T01:35:00.388Z,10.33
2022-12-29T01:37:27.873Z,10.43
2022-12-29T01:39:55.342Z,10.40
2022-12-29T01:42:26.915Z,10.34
2022-12-29T01:44:57.538Z,10.35
2022-12-29T01:47:30.854Z,10.34
2022-12-29T01:50:00.215Z,10.27
2022-12-29T01:52:30.176Z,10.35
2022-12-29T01:54:58.017Z,10.26
2022-12-29T01:57:27.931Z,10.27
2022-12-29T01:59:58.596Z,10.16
2022-12-29T02:02:26.593Z,10.19
2022-12-29T02:04:58.858Z,10.32
2022-12-29T02:07:29.850Z,10.30
2022-12-29T02:09:57.894Z,10.29
2022-12-29T02:12:25.659Z,10.31
2022-12-29T02:14:57.951Z,10.36
2022-12-29T02:17:33.476Z,10.37
2022-12-29T02:20:19.747Z,10.43
2022-12-29T02:22:52.069Z,10.42
2022-12-29T02:25:45.884Z,10.38
2022-12-29T02:28:35.605Z,10.49
2022-12-29T02:31:10.697Z,10.40
2022-12-29T02:33:50.079Z,10.38
2022-12-29T02:36:23.726Z,10.40
2022-12-29T02:38:58.534Z,10.29
2022-12-29T02:41:33.293Z,10.33
2022-12-29T02:44:05.890Z,10.36
2022-12-29T02:46:38.285Z,10.35
2022-12-29T02:49:11.256Z,10.31
2022-12-29T02:51:46.234Z,10.36
2022-12-29T02:54:31.341Z,10.26
2022-12-29T02:56:58.818Z,10.28
2022-12-29T02:59:26.471Z,10.22
2022-12-29T03:02:21.555Z,10.27
2022-12-29T03:05:00.660Z,10.37
2022-12-29T03:07:34.804Z,10.35
2022-12-29T03:10:09.877Z,10.46
2022-12-29T03:13:00.213Z,10.46
2022-12-29T03:15:48.074Z,10.45
2022-12-29T03:18:21.705Z,10.53
2022-12-29T03:20:53.204Z,10.56
2022-12-29T03:23:22.001Z,10.59
2022-12-29T03:25:51.376Z,10.60
2022-12-29T03:28:21.723Z,10.65
2022-12-29T03:30:49.373Z,10.57
2022-12-29T03:33:20.668Z,10.52
2022-12-29T03:35:50.481Z,10.59
2022-12-29T03:38:20.602Z,10.56
2022-12-29T03:40:50.473Z,10.59
2022-12-29T03:43:19.163Z,10.64
2022-12-29T03:45:46.700Z,10.65
2022-12-29T03:48:14.212Z,10.70
2022-12-29T03:50:43.217Z,10.70
2022-12-29T03:53:10.745Z,10.71
2022-12-29T03:55:38.185Z,10.78
2022-12-29T03:58:05.732Z,10.79
2022-12-29T04:00:33.189Z,10.80
2022-12-29T04:03:00.784Z,10.84
2022-12-29T04:05:28.440Z,10.84
2022-12-29T04:07:57.229Z,10.86
2022-12-29T04:10:24.676Z,10.89
2022-12-29T04:12:52.137Z,10.89
2022-12-29T04:15:19.684Z,10.97
2022-12-29T04:17:47.173Z,10.93
2022-12-29T04:20:32.065Z,11.01
2022-12-29T04:23:02.341Z,11.00
2022-12-29T04:25:29.825Z,11.07
2022-12-29T04:27:57.316Z,11.08
2022-12-29T04:30:24.889Z,11.10
2022-12-29T04:32:52.375Z,11.08
2022-12-29T04:35:19.834Z,11.19
2022-12-29T04:37:47.301Z,11.19
2022-12-29T04:40:16.217Z,11.18
2022-12-29T04:42:44.291Z,11.23
2022-12-29T04:45:12.536Z,11.22
2022-12-29T04:47:40.044Z,11.43
2022-12-29T04:50:08.348Z,11.38
2022-12-29T04:52:35.911Z,11.36
2022-12-29T04:55:03.607Z,11.36
2022-12-29T04:57:32.426Z,11.36
2022-12-29T05:00:00.879Z,11.42
2022-12-29T05:02:28.546Z,11.44
2022-12-29T05:04:56.193Z,11.38
2022-12-29T05:07:23.696Z,11.31
2022-12-29T05:09:51.199Z,11.30
2022-12-29T05:12:18.664Z,11.20
2022-12-29T05:14:47.495Z,11.22
2022-12-29T05:17:14.940Z,11.22
2022-12-29T05:19:42.392Z,11.25
2022-12-29T05:22:10.077Z,11.21
2022-12-29T05:24:37.588Z,11.16
2022-12-29T05:27:05.158Z,11.03
2022-12-29T05:29:32.738Z,11.09
2022-12-29T05:32:01.630Z,11.08
2022-12-29T05:34:29.182Z,11.04
2022-12-29T05:36:56.687Z,11.05
2022-12-29T05:39:24.130Z,11.06
2022-12-29T05:41:51.614Z,11.02
2022-12-29T05:44:19.161Z,11.07
2022-12-29T05:46:47.022Z,11.14
2022-12-29T05:49:15.956Z,11.20
2022-12-29T05:51:43.405Z,11.25
2022-12-29T05:54:10.886Z,11.28
2022-12-29T05:56:38.388Z,11.35
2022-12-29T05:59:05.937Z,11.34
2022-12-29T06:01:35.235Z,11.36
2022-12-29T06:04:02.904Z,11.41
2022-12-29T06:06:31.813Z,11.41
2022-12-29T06:08:59.319Z,11.50
2022-12-29T06:11:26.793Z,11.42
2022-12-29T06:13:54.306Z,11.49
2022-12-29T06:16:21.989Z,11.49
2022-12-29T06:18:49.484Z,11.55
2022-12-29T06:21:16.917Z,11.57
2022-12-29T06:23:46.166Z,11.54
2022-12-29T06:26:13.621Z,11.55
2022-12-29T06:28:41.360Z,11.58
2022-12-29T06:31:11.236Z,11.63
2022-12-29T06:33:39.087Z,11.62
2022-12-29T06:36:07.120Z,11.62
2022-12-29T06:38:36.096Z,11.59
2022-12-29T06:41:05.128Z,11.58
2022-12-29T06:43:33.157Z,11.56
2022-12-29T06:46:01.334Z,11.58
2022-12-29T06:48:28.826Z,11.55
2022-12-29T06:50:56.295Z,11.57
2022-12-29T06:53:23.774Z,11.51
2022-12-29T06:55:51.378Z,11.49
2022-12-29T06:58:20.292Z,11.43
2022-12-29T07:00:47.897Z,11.37
2022-12-29T07:03:15.488Z,11.34
2022-12-29T07:05:42.962Z,11.38
2022-12-29T07:08:10.473Z,11.37
2022-12-29T07:10:37.943Z,11.31
2022-12-29T07:13:05.434Z,11.25
2022-12-29T07:15:34.249Z,11.22
2022-12-29T07:18:01.752Z,11.23
2022-12-29T07:20:29.239Z,11.32
2022-12-29T07:22:56.785Z,11.35
2022-12-29T07:25:24.324Z,11.27
2022-12-29T07:27:51.976Z,11.32
2022-12-29T07:30:19.664Z,11.30
2022-12-29T07:32:48.422Z,11.28
2022-12-29T07:35:15.887Z,11.37
2022-12-29T07:37:45.092Z,11.35
2022-12-29T07:40:13.728Z,11.43
2022-12-29T07:42:41.636Z,11.40
2022-12-29T07:45:11.086Z,11.49
2022-12-29T07:47:38.570Z,11.52
2022-12-29T07:50:08.377Z,11.55
2022-12-29T07:52:35.973Z,11.58
2022-12-29T07:55:03.435Z,11.58
2022-12-29T07:57:32.243Z,11.62
2022-12-29T08:00:00.061Z,11.54
2022-12-29T08:02:28.141Z,11.63
2022-12-29T08:04:55.820Z,11.56
2022-12-29T08:07:24.643Z,11.62
2022-12-29T08:09:52.091Z,11.60
2022-12-29T08:12:19.729Z,11.51
2022-12-29T08:14:47.199Z,11.54
2022-12-29T08:17:14.650Z,11.50
2022-12-29T08:19:43.489Z,11.44
2022-12-29T08:22:11.129Z,11.43
2022-12-29T08:24:39.965Z,11.40
2022-12-29T08:27:16.074Z,11.34
2022-12-29T08:29:47.347Z,11.32
2022-12-29T08:32:14.868Z,11.26
2022-12-29T08:34:42.365Z,11.29
2022-12-29T08:37:09.850Z,11.30
2022-12-29T08:39:37.426Z,11.30
2022-12-29T08:42:07.239Z,11.30
2022-12-29T08:44:34.727Z,11.30
2022-12-29T08:47:02.228Z,11.42
2022-12-29T08:49:29.819Z,11.30
2022-12-29T08:51:57.301Z,11.28
2022-12-29T08:54:24.857Z,11.16
2022-12-29T08:56:52.590Z,11.08
2022-12-29T08:59:21.393Z,10.84
2022-12-29T09:01:48.957Z,10.85
2022-12-29T09:04:17.632Z,10.72
2022-12-29T09:06:46.164Z,10.68
2022-12-29T09:09:14.267Z,10.64
2022-12-29T09:11:42.145Z,10.35
2022-12-29T09:14:09.931Z,10.40
2022-12-29T09:16:39.043Z,10.35
2022-12-29T09:19:06.707Z,10.29
2022-12-29T09:21:34.293Z,10.28
2022-12-29T09:24:01.829Z,10.24
2022-12-29T09:26:29.342Z,10.34
2022-12-29T09:28:57.703Z,10.36
2022-12-29T09:31:25.983Z,10.36
2022-12-29T09:33:54.785Z,10.36
2022-12-29T09:36:22.257Z,10.28
2022-12-29T09:38:49.699Z,10.23
2022-12-29T09:41:22.823Z,10.18
2022-12-29T09:44:05.592Z,10.07
2022-12-29T09:46:36.625Z,10.03
2022-12-29T09:49:11.967Z,9.99
2022-12-29T09:51:40.330Z,9.98
2022-12-29T09:54:23.223Z,9.92
2022-12-29T09:56:51.267Z,9.88
2022-12-29T09:59:21.850Z,9.93
2022-12-29T10:01:54.733Z,9.98
2022-12-29T10:04:23.697Z,9.98
2022-12-29T10:07:28.083Z,9.94
2022-12-29T10:09:47.748Z,9.89
2022-12-29T10:12:25.428Z,9.92
2022-12-29T10:15:02.484Z,9.94
2022-12-29T10:17:38.191Z,9.88
2022-12-29T10:20:28.211Z,9.92
2022-12-29T10:23:07.892Z,9.77
2022-12-29T10:25:39.608Z,9.76
2022-12-29T10:28:11.682Z,9.86
2022-12-29T10:30:39.681Z,9.75
2022-12-29T10:33:09.775Z,9.73
2022-12-29T10:35:41.331Z,9.76
2022-12-29T10:38:15.168Z,9.71
2022-12-29T10:40:45.752Z,9.88
2022-12-29T10:43:21.513Z,9.80
2022-12-29T10:45:49.839Z,9.81
2022-12-29T10:48:24.853Z,9.88
2022-12-29T10:51:01.989Z,9.81
2022-12-29T10:53:33.965Z,9.91
2022-12-29T10:56:02.801Z,9.98
2022-12-29T10:58:33.059Z,10.06
2022-12-29T11:01:00.948Z,10.12
2022-12-29T11:03:48.251Z,9.99
2022-12-29T11:06:20.957Z,10.08
2022-12-29T11:08:54.406Z,10.14
2022-12-29T11:11:27.967Z,10.28
2022-12-29T11:14:00.404Z,10.42
2022-12-29T11:16:33.759Z,10.53
2022-12-29T11:19:01.861Z,10.55
2022-12-29T11:21:34.804Z,10.56
2022-12-29T11:24:03.599Z,10.59
2022-12-29T11:26:34.535Z,10.64
2022-12-29T11:29:17.922Z,10.71
2022-12-29T11:31:47.413Z,10.75
2022-12-29T11:34:20.326Z,10.85
2022-12-29T11:36:49.853Z,10.92
2022-12-29T11:39:28.721Z,11.03
2022-12-29T11:41:56.345Z,11.04
2022-12-29T11:44:23.952Z,11.09
2022-12-29T11:46:53.162Z,11.23
2022-12-29T11:49:22.310Z,11.26
2022-12-29T11:51:52.811Z,11.33
2022-12-29T11:54:23.918Z,11.42
2022-12-29T11:56:52.154Z,11.36
2022-12-29T11:59:38.863Z,11.37
2022-12-29T12:02:37.294Z,11.39
2022-12-29T12:05:17.721Z,11.54
2022-12-29T12:07:47.944Z,11.59
2022-12-29T12:10:34.681Z,11.64
2022-12-29T12:13:08.160Z,11.69
2022-12-29T12:15:45.364Z,11.74
2022-12-29T12:18:19.483Z,11.78
2022-12-29T12:20:49.634Z,11.71
2022-12-29T12:23:38.792Z,11.66
2022-12-29T12:26:12.535Z,11.69
2022-12-29T12:28:47.087Z,11.66
2022-12-29T12:31:21.207Z,11.69
2022-12-29T12:33:50.751Z,11.63
2022-12-29T12:36:28.985Z,11.66
2022-12-29T12:39:04.743Z,11.60
2022-12-29T12:41:43.534Z,11.60
2022-12-29T12:44:13.810Z,11.58
2022-12-29T12:46:54.458Z,11.57
2022-12-29T12:49:44.773Z,11.47
2022-12-29T12:52:19.138Z,11.46
2022-12-29T12:54:59.136Z,11.32
2022-12-29T12:57:36.720Z,11.45
2022-12-29T13:00:07.537Z,11.33
2022-12-29T13:02:45.648Z,11.36
2022-12-29T13:05:29.152Z,11.30
2022-12-29T13:08:08.862Z,11.24
2022-12-29T13:10:48.334Z,11.39
2022-12-29T13:13:45.058Z,11.38
2022-12-29T13:16:15.473Z,11.41
2022-12-29T13:18:48.735Z,11.48
2022-12-29T13:21:24.481Z,11.56
2022-12-29T13:23:58.281Z,11.64
2022-12-29T13:26:31.538Z,11.71
2022-12-29T13:29:04.136Z,11.71
2022-12-29T13:31:37.892Z,11.83
2022-12-29T13:34:13.145Z,11.70
2022-12-29T13:36:46.579Z,11.73
2022-12-29T13:39:21.086Z,11.71
2022-12-29T13:41:52.456Z,11.56
2022-12-29T13:44:23.925Z,11.42
2022-12-29T13:46:51.896Z,11.53
2022-12-29T13:49:21.088Z,11.52
2022-12-29T13:51:50.988Z,11.57
2022-12-29T13:54:33.037Z,11.67
2022-12-29T13:57:08.895Z,11.67
2022-12-29T13:59:42.681Z,11.68
2022-12-29T14:02:19.003Z,11.64
2022-12-29T14:04:58.416Z,11.62
2022-12-29T14:07:25.985Z,11.57
2022-12-29T14:09:54.596Z,11.60
2022-12-29T14:12:33.795Z,11.52
2022-12-29T14:15:07.176Z,11.49
2022-12-29T14:17:34.840Z,11.50
2022-12-29T14:20:02.570Z,11.41
2022-12-29T14:22:33.345Z,11.31
2022-12-29T14:25:01.220Z,11.26
2022-12-29T14:27:55.751Z,11.23
2022-12-29T14:30:59.804Z,11.29
2022-12-29T14:33:30.342Z,11.20
2022-12-29T14:35:58.408Z,11.16
2022-12-29T14:38:33.202Z,11.18
2022-12-29T14:41:34.474Z,11.22
2022-12-29T14:44:16.839Z,11.27
2022-12-29T14:46:50.085Z,11.27
2022-12-29T14:49:20.905Z,11.28
2022-12-29T14:51:49.223Z,11.28
2022-12-29T14:54:52.156Z,11.22
2022-12-29T14:57:27.804Z,11.35
2022-12-29T15:00:00.307Z,11.36
2022-12-29T15:02:35.255Z,11.27
2022-12-29T15:05:04.783Z,11.16
2022-12-29T15:07:33.153Z,11.19
2022-12-29T15:10:06.761Z,11.04
2022-12-29T15:12:39.361Z,10.96
2022-12-29T15:15:20.480Z,10.79
2022-12-29T15:17:48.104Z,10.77
2022-12-29T15:20:27.579Z,10.86
2022-12-29T15:22:57.878Z,10.83
2022-12-29T15:25:26.247Z,10.82
2022-12-29T15:27:55.014Z,10.68
2022-12-29T15:30:24.287Z,10.67
2022-12-29T15:32:52.769Z,10.58
2022-12-29T15:35:35.835Z,10.58
2022-12-29T15:38:15.180Z,10.57
2022-12-29T15:40:45.896Z,10.50
2022-12-29T15:43:25.550Z,10.46
2022-12-29T15:45:56.170Z,10.49
2022-12-29T15:48:25.370Z,10.44
2022-12-29T15:50:53.233Z,10.37
2022-12-29T15:53:25.660Z,10.50
2022-12-29T15:55:55.944Z,10.42
2022-12-29T15:58:28.921Z,10.32
2022-12-29T16:00:59.775Z,10.36
2022-12-29T16:03:28.817Z,10.31
2022-12-29T16:05:57.779Z,10.30
2022-12-29T16:08:38.775Z,10.30
2022-12-29T16:11:10.164Z,10.27
2022-12-29T16:13:40.865Z,10.27
2022-12-29T16:16:16.132Z,10.29
2022-12-29T16:18:43.806Z,10.28
2022-12-29T16:21:18.995Z,10.19
2022-12-29T16:23:49.678Z,10.11
2022-12-29T16:26:18.467Z,10.12
2022-12-29T16:28:46.380Z,10.07
2022-12-29T16:31:24.617Z,9.97
2022-12-29T16:33:53.927Z,9.94
2022-12-29T16:36:30.878Z,10.08
2022-12-29T16:39:25.244Z,9.98
2022-12-29T16:41:53.213Z,9.88
2022-12-29T16:44:22.194Z,9.86
2022-12-29T16:47:06.121Z,9.78
2022-12-29T16:49:36.299Z,9.80
2022-12-29T16:52:13.496Z,9.74
2022-12-29T16:54:41.280Z,9.75
2022-12-29T16:57:09.401Z,9.70
2022-12-29T16:59:39.149Z,9.68
2022-12-29T17:02:14.952Z,9.72
2022-12-29T17:04:42.667Z,9.64
2022-12-29T17:07:15.991Z,9.61
2022-12-29T17:09:43.620Z,9.61
2022-12-29T17:12:13.382Z,9.60
2022-12-29T17:14:43.578Z,9.49
2022-12-29T17:17:17.369Z,9.60
2022-12-29T17:19:48.315Z,9.50
2022-12-29T17:22:18.942Z,9.50
2022-12-29T17:24:46.834Z,9.50
2022-12-29T17:27:22.891Z,9.55
2022-12-29T17:29:51.088Z,9.54
2022-12-29T17:32:20.516Z,9.50
2022-12-29T17:34:48.780Z,9.48
2022-12-29T17:37:30.348Z,9.48
2022-12-29T17:39:58.111Z,9.46
2022-12-29T17:42:26.035Z,9.45
2022-12-29T17:44:53.754Z,9.48
2022-12-29T17:47:22.718Z,9.36
2022-12-29T17:49:50.279Z,9.31
2022-12-29T17:52:18.642Z,9.41
2022-12-29T17:54:48.053Z,9.46
2022-12-29T17:57:16.993Z,9.43
2022-12-29T17:59:44.615Z,9.35
2022-12-29T18:02:25.932Z,9.25
2022-12-29T18:04:54.155Z,9.36
2022-12-29T18:07:22.543Z,9.37
2022-12-29T18:09:50.275Z,9.50
2022-12-29T18:12:39.025Z,9.49
2022-12-29T18:15:08.391Z,9.38
2022-12-29T18:17:37.602Z,9.28
2022-12-29T18:20:05.905Z,9.30
2022-12-29T18:22:33.575Z,9.32
2022-12-29T18:25:02.037Z,9.34
2022-12-29T18:27:29.773Z,9.34
2022-12-29T18:29:57.304Z,9.28
2022-12-29T18:32:25.104Z,9.28
2022-12-29T18:34:54.214Z,9.31
2022-12-29T18:37:21.850Z,9.29
2022-12-29T18:39:49.702Z,9.17
2022-12-29T18:42:18.494Z,9.17
2022-12-29T18:44:46.199Z,9.27
2022-12-29T18:47:13.857Z,9.11
2022-12-29T18:49:41.624Z,9.09
2022-12-29T18:52:13.980Z,9.17
2022-12-29T18:54:41.504Z,9.09
2022-12-29T18:57:08.998Z,9.00
2022-12-29T18:59:36.582Z,9.17
2022-12-29T19:02:04.270Z,9.14
2022-12-29T19:04:31.815Z,9.22
2022-12-29T19:06:59.295Z,9.04
2022-12-29T19:09:28.327Z,9.08
2022-12-29T19:11:55.952Z,8.94
2022-12-29T19:14:23.552Z,8.94
2022-12-29T19:16:51.153Z,9.06
2022-12-29T19:19:18.881Z,8.91
2022-12-29T19:21:49.096Z,8.94
2022-12-29T19:24:16.767Z,8.89
2022-12-29T19:26:45.727Z,8.97
2022-12-29T19:29:15.590Z,8.92
2022-12-29T19:31:43.708Z,8.97
2022-12-29T19:34:11.962Z,8.97
2022-12-29T19:36:39.562Z,8.79
2022-12-29T19:39:07.229Z,8.86
2022-12-29T19:41:34.978Z,8.99
2022-12-29T19:44:05.219Z,8.91
2022-12-29T19:46:32.971Z,9.07
2022-12-29T19:49:00.986Z,9.05
2022-12-29T19:51:28.650Z,9.04
2022-12-29T19:53:58.373Z,9.08
2022-12-29T19:56:25.956Z,9.02
2022-12-29T19:58:57.551Z,9.02
2022-12-29T20:01:27.358Z,9.09
2022-12-29T20:03:55.071Z,9.01
2022-12-29T20:06:22.966Z,9.01
2022-12-29T20:08:50.560Z,8.99
2022-12-29T20:11:19.219Z,8.91
2022-12-29T20:13:47.896Z,8.91
2022-12-29T20:16:18.036Z,8.93
2022-12-29T20:18:47.890Z,9.01
2022-12-29T20:21:18.091Z,8.96
2022-12-29T20:23:46.222Z,8.98
2022-12-29T20:26:15.665Z,8.81
2022-12-29T20:28:43.421Z,8.78
2022-12-29T20:31:17.138Z,8.80
2022-12-29T20:33:44.777Z,8.84
2022-12-29T20:36:16.137Z,8.84
2022-12-29T20:38:44.451Z,8.90
2022-12-29T20:41:13.879Z,8.90
2022-12-29T20:43:42.143Z,8.90
2022-12-29T20:46:11.008Z,8.91
2022-12-29T20:48:39.053Z,8.92
2022-12-29T20:51:07.459Z,8.89
2022-12-29T20:53:37.606Z,8.76
2022-12-29T20:56:07.055Z,8.63
2022-12-29T20:58:47.165Z,8.72
2022-12-29T21:01:24.385Z,8.76
2022-12-29T21:03:52.500Z,8.72
2022-12-29T21:06:21.716Z,8.61
2022-12-29T21:08:51.146Z,8.67
2022-12-29T21:11:19.527Z,8.71
2022-12-29T21:13:47.194Z,8.78
2022-12-29T21:16:15.481Z,8.79
2022-12-29T21:18:43.340Z,8.66
2022-12-29T21:21:16.185Z,8.77
2022-12-29T21:23:43.963Z,8.73
2022-12-29T21:26:15.213Z,8.73
2022-12-29T21:28:43.499Z,8.68
2022-12-29T21:31:12.779Z,8.75
2022-12-29T21:33:40.428Z,8.72
2022-12-29T21:36:09.519Z,8.61
2022-12-29T21:38:39.746Z,8.73
2022-12-29T21:41:08.712Z,8.59
2022-12-29T21:43:38.511Z,8.51
2022-12-29T21:46:06.189Z,8.66
2022-12-29T21:48:33.865Z,8.53
2022-12-29T21:51:30.180Z,8.31
2022-12-29T21:54:20.382Z,8.27
2022-12-29T21:56:49.044Z,8.34
2022-12-29T21:59:35.963Z,8.47
2022-12-29T22:02:23.259Z,8.53
2022-12-29T22:05:12.176Z,8.62
2022-12-29T22:07:57.822Z,8.52
2022-12-29T22:10:43.418Z,8.49
2022-12-29T22:13:11.280Z,8.48
2022-12-29T22:15:41.069Z,8.27
2022-12-29T22:18:08.666Z,8.15
2022-12-29T22:20:37.610Z,8.09
2022-12-29T22:23:05.507Z,8.04
2022-12-29T22:25:33.226Z,8.12
2022-12-29T22:28:00.901Z,8.12
2022-12-29T22:30:28.973Z,8.08
2022-12-29T22:32:59.396Z,8.04
2022-12-29T22:35:27.097Z,8.04
2022-12-29T22:37:55.203Z,7.92
2022-12-29T22:40:22.873Z,7.95
2022-12-29T22:42:50.471Z,8.01
2022-12-29T22:45:18.133Z,8.03
2022-12-29T22:47:45.678Z,8.07
2022-12-29T22:50:17.317Z,7.85
2022-12-29T22:52:44.918Z,7.77
2022-12-29T22:55:12.462Z,7.60
2022-12-29T22:57:40.132Z,7.68
2022-12-29T23:00:09.134Z,7.58
2022-12-29T23:02:36.978Z,7.51
2022-12-29T23:05:06.103Z,7.46
2022-12-29T23:07:36.280Z,7.53
2022-12-29T23:10:04.101Z,7.56
2022-12-29T23:12:32.493Z,7.43
2022-12-29T23:15:02.207Z,7.41
2022-12-29T23:17:29.995Z,7.30
2022-12-29T23:19:57.605Z,7.12
2022-12-29T23:22:25.247Z,7.10
2022-12-29T23:24:54.200Z,6.86
2022-12-29T23:27:22.005Z,6.96
2022-12-29T23:29:49.625Z,6.72
2022-12-29T23:32:17.289Z,6.85
2022-12-29T23:34:44.815Z,6.95
2022-12-29T23:37:12.890Z,7.01
2022-12-29T23:39:43.226Z,7.00
2022-12-29T23:42:12.353Z,6.95
2022-12-29T23:44:40.121Z,6.91
2022-12-29T23:47:07.824Z,6.85
2022-12-29T23:49:35.485Z,6.83
2022-12-29T23:52:03.157Z,6.76
2022-12-29T23:54:30.678Z,6.63
2022-12-29T23:56:58.371Z,6.83
2022-12-29T23:59:27.487Z,6.71
